Mir — UFPV — position and weather

sailwx.info

Track history (hours):
 
Tides and Currents Weather Stations Pressure Air Temp Water Temp Dewpoint Dewpoint Depression Visibility Wind Speed Wind Dir Waves Ship Positions

Mir (Russia)

Last reported at 2020-Jan-09 14:30 UTC. Time now 2020-Jan-25 01:58 UTC.
Position N 54°40' E 020°09'.
Warning: this ship's position is 15 days out of date.

Length 109 m; draft 6.5 m.

Type: Sailing vessel. MMSI: 273133767.

Date/timePositionNaut miles runAvg speedWind from/ knotsBaromVisibWave heightAir tempDewpointWater temp
2020-Jan-09 14:30N 54°40' E 020°09'12 2.4
2020-Jan-09 09:29N 54°38' E 019°48'0 0.0
2020-Jan-09 08:59N 54°38' E 019°48'0 0.0
2020-Jan-09 08:26N 54°38' E 019°48'  
2020-Jan-06 20:58N 59°20' E 022°01'10 6.5
2020-Jan-06 19:30N 59°26' E 022°16'3 5.9
2020-Jan-06 19:00N 59°28' E 022°21'16 6.4
2020-Jan-06 16:29N 59°34' E 022°50'3 6.6
2020-Jan-06 16:00N 59°35' E 022°56'7 6.9
2020-Jan-06 15:00N 59°37' E 023°09'14 6.9
2020-Jan-06 12:59N 59°41' E 023°36'4 7.1
2020-Jan-06 12:29N 59°42' E 023°42'22 7.3
2020-Jan-06 09:30N 59°48' E 024°24'4 7.3
2020-Jan-06 09:00N 59°48' E 024°31'11 7.4
2020-Jan-06 07:30N 59°50' E 024°53'23 6.5
2020-Jan-06 03:56N 59°55' E 025°38'2 5.5
2020-Jan-06 03:29N 59°55' E 025°43'21 6.1
2020-Jan-06 00:00N 60°00' E 026°25'3 6.6
2020-Jan-05 23:30N 60°01' E 026°31'3 6.3
2020-Jan-05 23:00N 60°02' E 026°37'4 7.4
2020-Jan-05 22:30N 60°01' E 026°45'4 7.6
2020-Jan-05 22:00N 60°00' E 026°52'26 7.5
2020-Jan-05 18:30N 60°11' E 027°40'28 7.9
2020-Jan-05 15:00N 60°03' E 028°34'28 8.2
2020-Jan-05 11:34N 60°02' E 029°30'8 7.2
2020-Jan-05 10:30N 59°59' E 029°44'7 7.2
2020-Jan-05 09:30N 59°56' E 029°58'4 7.1
2020-Jan-05 09:00N 59°54' E 030°04'3 6.6
2020-Jan-05 08:30N 59°53' E 030°10'1 1.2
2020-Jan-05 07:30N 59°53' E 030°13'0 0.0
2020-Jan-05 07:00N 59°53' E 030°13'0 0.0
2020-Jan-05 06:00N 59°53' E 030°13'0 0.0
2020-Jan-05 05:29N 59°53' E 030°13'0 0.0
2020-Jan-04 22:29N 59°53' E 030°13'0 0.0
2020-Jan-04 20:59N 59°53' E 030°13'0 0.0
2020-Jan-04 20:29N 59°53' E 030°13'0 0.0
2020-Jan-04 19:26N 59°53' E 030°13'0 0.0
2020-Jan-04 16:59N 59°53' E 030°13'0 0.0
2020-Jan-04 15:59N 59°53' E 030°13'0 0.0
2020-Jan-04 15:29N 59°53' E 030°13'0 0.0
2020-Jan-04 14:59N 59°53' E 030°13'0 0.0
2020-Jan-04 13:59N 59°53' E 030°13'0 0.0
2020-Jan-04 09:56N 59°53' E 030°13'0 0.0
2020-Jan-04 08:29N 59°53' E 030°13'0 0.0
2020-Jan-04 07:59N 59°53' E 030°13'0 0.0
2020-Jan-04 06:59N 59°53' E 030°13'0 0.0
2020-Jan-04 06:29N 59°53' E 030°13'0 0.0
2020-Jan-04 04:59N 59°53' E 030°13'0 0.0
2020-Jan-04 04:26N 59°53' E 030°13'0 0.0
2020-Jan-04 02:59N 59°53' E 030°13'0 0.0
2020-Jan-03 20:58N 59°53' E 030°13'0 0.0
2020-Jan-03 18:58N 59°53' E 030°13'0 0.0
2020-Jan-03 13:28N 59°53' E 030°13'0 0.0
2020-Jan-03 12:28N 59°53' E 030°13'0 0.0
2020-Jan-03 11:58N 59°53' E 030°13'0 0.0
2020-Jan-03 10:28N 59°53' E 030°13'0 0.0
2020-Jan-03 08:58N 59°53' E 030°13'0 0.0
2020-Jan-03 07:28N 59°53' E 030°13'0 0.0
2020-Jan-03 06:58N 59°53' E 030°13'0 0.0
2020-Jan-03 05:28N 59°53' E 030°13'0 0.0
2020-Jan-03 03:58N 59°53' E 030°13'0 0.0
2020-Jan-03 02:28N 59°53' E 030°13'0 0.0
2020-Jan-02 23:58N 59°53' E 030°13'0 0.0
2020-Jan-02 21:28N 59°53' E 030°13'0 0.0
2020-Jan-02 20:58N 59°53' E 030°13'0 0.0
2020-Jan-02 19:58N 59°53' E 030°13'0 0.0
2020-Jan-02 15:58N 59°53' E 030°13'0 0.0
2020-Jan-02 14:28N 59°53' E 030°13'0 0.0
2020-Jan-02 13:58N 59°53' E 030°13'0 0.0
2020-Jan-02 10:28N 59°53' E 030°13'0 0.0
2020-Jan-02 07:58N 59°53' E 030°13'0 0.0
2020-Jan-02 07:28N 59°53' E 030°13'  
Track history (hours):
 
Tides and Currents Weather Stations Pressure Air Temp Water Temp Dewpoint Dewpoint Depression Visibility Wind Speed Wind Dir Waves Ship Positions

Mir (Russia)

Last reported at 2020-Jan-09 14:30 UTC. Time now 2020-Jan-25 01:58 UTC.
Position N 54°40' E 020°09'.
Warning: this ship's position is 15 days out of date.

Length 109 m; draft 6.5 m.

Type: Sailing vessel. MMSI: 273133767.

Date/timePositionNaut miles runAvg speedWind from/ knotsBaromVisibWave heightAir tempDewpointWater temp
2020-Jan-09 14:30N 54°40' E 020°09'12 2.4
2020-Jan-09 09:29N 54°38' E 019°48'0 0.0
2020-Jan-09 08:59N 54°38' E 019°48'0 0.0
2020-Jan-09 08:26N 54°38' E 019°48'  
2020-Jan-06 20:58N 59°20' E 022°01'10 6.5
2020-Jan-06 19:30N 59°26' E 022°16'3 5.9
2020-Jan-06 19:00N 59°28' E 022°21'16 6.4
2020-Jan-06 16:29N 59°34' E 022°50'3 6.6
2020-Jan-06 16:00N 59°35' E 022°56'7 6.9
2020-Jan-06 15:00N 59°37' E 023°09'14 6.9
2020-Jan-06 12:59N 59°41' E 023°36'4 7.1
2020-Jan-06 12:29N 59°42' E 023°42'22 7.3
2020-Jan-06 09:30N 59°48' E 024°24'4 7.3
2020-Jan-06 09:00N 59°48' E 024°31'11 7.4
2020-Jan-06 07:30N 59°50' E 024°53'23 6.5
2020-Jan-06 03:56N 59°55' E 025°38'2 5.5
2020-Jan-06 03:29N 59°55' E 025°43'21 6.1
2020-Jan-06 00:00N 60°00' E 026°25'3 6.6
2020-Jan-05 23:30N 60°01' E 026°31'3 6.3
2020-Jan-05 23:00N 60°02' E 026°37'4 7.4
2020-Jan-05 22:30N 60°01' E 026°45'4 7.6
2020-Jan-05 22:00N 60°00' E 026°52'26 7.5
2020-Jan-05 18:30N 60°11' E 027°40'28 7.9
2020-Jan-05 15:00N 60°03' E 028°34'28 8.2
2020-Jan-05 11:34N 60°02' E 029°30'8 7.2
2020-Jan-05 10:30N 59°59' E 029°44'7 7.2
2020-Jan-05 09:30N 59°56' E 029°58'4 7.1
2020-Jan-05 09:00N 59°54' E 030°04'3 6.6
2020-Jan-05 08:30N 59°53' E 030°10'1 1.2
2020-Jan-05 07:30N 59°53' E 030°13'0 0.0
2020-Jan-05 07:00N 59°53' E 030°13'0 0.0
2020-Jan-05 06:00N 59°53' E 030°13'0 0.0
2020-Jan-05 05:29N 59°53' E 030°13'0 0.0
2020-Jan-04 22:29N 59°53' E 030°13'0 0.0
2020-Jan-04 20:59N 59°53' E 030°13'0 0.0
2020-Jan-04 20:29N 59°53' E 030°13'0 0.0
2020-Jan-04 19:26N 59°53' E 030°13'0 0.0
2020-Jan-04 16:59N 59°53' E 030°13'0 0.0
2020-Jan-04 15:59N 59°53' E 030°13'0 0.0
2020-Jan-04 15:29N 59°53' E 030°13'0 0.0
2020-Jan-04 14:59N 59°53' E 030°13'0 0.0
2020-Jan-04 13:59N 59°53' E 030°13'0 0.0
2020-Jan-04 09:56N 59°53' E 030°13'0 0.0
2020-Jan-04 08:29N 59°53' E 030°13'0 0.0
2020-Jan-04 07:59N 59°53' E 030°13'0 0.0
2020-Jan-04 06:59N 59°53' E 030°13'0 0.0
2020-Jan-04 06:29N 59°53' E 030°13'0 0.0
2020-Jan-04 04:59N 59°53' E 030°13'0 0.0
2020-Jan-04 04:26N 59°53' E 030°13'0 0.0
2020-Jan-04 02:59N 59°53' E 030°13'0 0.0
2020-Jan-03 20:58N 59°53' E 030°13'0 0.0
2020-Jan-03 18:58N 59°53' E 030°13'0 0.0
2020-Jan-03 13:28N 59°53' E 030°13'0 0.0
2020-Jan-03 12:28N 59°53' E 030°13'0 0.0
2020-Jan-03 11:58N 59°53' E 030°13'0 0.0
2020-Jan-03 10:28N 59°53' E 030°13'0 0.0
2020-Jan-03 08:58N 59°53' E 030°13'0 0.0
2020-Jan-03 07:28N 59°53' E 030°13'0 0.0
2020-Jan-03 06:58N 59°53' E 030°13'0 0.0
2020-Jan-03 05:28N 59°53' E 030°13'0 0.0
2020-Jan-03 03:58N 59°53' E 030°13'0 0.0
2020-Jan-03 02:28N 59°53' E 030°13'0 0.0
2020-Jan-02 23:58N 59°53' E 030°13'0 0.0
2020-Jan-02 21:28N 59°53' E 030°13'0 0.0
2020-Jan-02 20:58N 59°53' E 030°13'0 0.0
2020-Jan-02 19:58N 59°53' E 030°13'0 0.0
2020-Jan-02 15:58N 59°53' E 030°13'0 0.0
2020-Jan-02 14:28N 59°53' E 030°13'0 0.0
2020-Jan-02 13:58N 59°53' E 030°13'0 0.0
2020-Jan-02 10:28N 59°53' E 030°13'0 0.0
2020-Jan-02 07:58N 59°53' E 030°13'0 0.0
2020-Jan-02 07:28N 59°53' E 030°13'  

Dump ship's entire track history